KBVY/BVY METAR and TAF weather

Enter ICAO airport designator
Station Type Date Time Source
KBVY METAR 2021/09/24 02:53 UTC NOAA

KBVY 240253Z AUTO 13010KT 10SM CLR 21/19 A3008 RMK AO2 SLP181 60000 T02060194 58003


Station Type Date Time Source
KBVY Decoded METAR 2021/09/24 02:53 UTC NOAA

BEVERLY MUNICIPAL AIRPORT, MA, United States (KBVY) 42-35N 070-55W 28M
Sep 23, 2021 - 10:53 PM EDT / 2021.09.24 0253 UTC
Wind: from the SE (130 degrees) at 12 MPH (10 KT):0
Visibility: 10 mile(s):0
Sky conditions: clear
Temperature: 69.1 F (20.6 C)
Dew Point: 66.9 F (19.4 C)
Relative Humidity: 92%
Pressure (altimeter): 30.08 in. Hg (1018 hPa)
Pressure tendency: 0.01 inches (0.3 hPa) lower than three hours ago
ob: KBVY 240253Z AUTO 13010KT 10SM CLR 21/19 A3008 RMK AO2 SLP181 60000 T02060194 58003
cycle: 3

Station Type Date Time Source
KBVY TAF UTC NOAA

Error!

Example: see airport list